createdAt,value
2017-12-11T00:00:21.792Z,987.95
2017-12-11T00:01:23.677Z,987.95
2017-12-11T00:02:37.821Z,987.95
2017-12-11T00:03:39.704Z,988.00
2017-12-11T00:04:41.587Z,988.09
2017-12-11T00:05:43.460Z,988.11
2017-12-11T00:06:45.279Z,988.10
2017-12-11T00:07:47.100Z,988.11
2017-12-11T00:08:48.985Z,988.13
2017-12-11T00:09:50.884Z,988.11
2017-12-11T00:10:52.770Z,988.01
2017-12-11T00:12:06.913Z,988.11
2017-12-11T00:13:08.796Z,988.11
2017-12-11T00:14:10.677Z,988.11
2017-12-11T00:15:12.551Z,988.12
2017-12-11T00:16:14.363Z,988.20
2017-12-11T00:17:16.172Z,988.26
2017-12-11T00:18:18.045Z,988.26
2017-12-11T00:19:19.928Z,988.24
2017-12-11T00:20:21.801Z,988.26
2017-12-11T00:21:35.958Z,988.36
2017-12-11T00:22:37.829Z,988.33
2017-12-11T00:23:39.713Z,988.36
2017-12-11T00:24:41.596Z,988.34
2017-12-11T00:25:43.416Z,988.35
2017-12-11T00:26:45.237Z,988.24
2017-12-11T00:27:47.120Z,988.31
2017-12-11T00:28:49.002Z,988.28
2017-12-11T00:29:50.886Z,988.37
2017-12-11T00:31:05.041Z,988.40
2017-12-11T00:32:06.924Z,988.33
2017-12-11T00:33:08.805Z,988.25
2017-12-11T00:34:10.689Z,988.34
2017-12-11T00:35:12.511Z,988.42
2017-12-11T00:36:14.332Z,988.36
2017-12-11T00:37:16.216Z,988.35
2017-12-11T00:38:18.087Z,988.46
2017-12-11T00:39:19.970Z,988.49
2017-12-11T00:40:34.109Z,988.34
2017-12-11T00:41:35.991Z,988.25
2017-12-11T00:42:37.874Z,988.28
2017-12-11T00:43:39.758Z,988.23
2017-12-11T00:44:41.570Z,988.18
2017-12-11T00:45:43.377Z,988.29
2017-12-11T00:46:45.248Z,988.20
2017-12-11T00:47:47.130Z,988.15
2017-12-11T00:48:49.014Z,988.19
2017-12-11T00:50:03.169Z,988.21
2017-12-11T00:51:05.051Z,988.11
2017-12-11T00:52:06.933Z,988.08
2017-12-11T00:53:08.803Z,988.12
2017-12-11T00:54:10.626Z,988.02
2017-12-11T00:55:12.445Z,987.92
2017-12-11T00:56:14.329Z,987.92
2017-12-11T00:57:16.202Z,987.96
2017-12-11T00:58:18.083Z,987.98
2017-12-11T00:59:32.241Z,987.94
2017-12-11T01:00:34.112Z,988.03
2017-12-11T01:01:35.984Z,988.03
2017-12-11T01:02:37.873Z,987.83
2017-12-11T01:03:39.684Z,988.00
2017-12-11T01:04:41.492Z,987.99
2017-12-11T01:05:43.376Z,988.01
2017-12-11T01:06:45.247Z,987.97
2017-12-11T01:07:47.132Z,988.07
2017-12-11T01:09:01.276Z,988.01
2017-12-11T01:10:03.158Z,987.94
2017-12-11T01:11:05.039Z,987.99
2017-12-11T01:12:06.911Z,987.99
2017-12-11T01:13:08.730Z,987.99
2017-12-11T01:14:10.551Z,987.87
2017-12-11T01:15:12.423Z,987.80
2017-12-11T01:16:14.307Z,987.68
2017-12-11T01:17:16.189Z,987.52
2017-12-11T01:18:30.334Z,987.59
2017-12-11T01:19:32.218Z,987.45
2017-12-11T01:20:34.100Z,987.52
2017-12-11T01:21:35.973Z,987.42
2017-12-11T01:22:37.792Z,987.42
2017-12-11T01:23:39.614Z,987.33
2017-12-11T01:24:41.459Z,987.18
2017-12-11T01:25:43.333Z,987.21
2017-12-11T01:26:45.216Z,987.04
2017-12-11T01:27:59.370Z,987.09
2017-12-11T01:29:01.255Z,987.01
2017-12-11T01:30:03.139Z,986.91
2017-12-11T01:31:05.010Z,986.85
2017-12-11T01:32:06.829Z,986.78
2017-12-11T01:33:08.652Z,986.83
2017-12-11T01:34:10.534Z,986.81
2017-12-11T01:35:12.418Z,986.85
2017-12-11T01:36:14.307Z,986.88
2017-12-11T01:37:28.448Z,986.70
2017-12-11T01:38:30.329Z,986.74
2017-12-11T01:39:32.209Z,986.87
2017-12-11T01:40:34.080Z,986.79
2017-12-11T01:41:35.893Z,986.83
2017-12-11T01:42:37.701Z,987.01
2017-12-11T01:43:39.574Z,986.93
2017-12-11T01:44:41.455Z,986.79
2017-12-11T01:45:43.339Z,986.84
2017-12-11T01:46:57.495Z,987.00
2017-12-11T01:47:59.368Z,987.10
2017-12-11T01:49:01.240Z,987.03
2017-12-11T01:50:03.142Z,987.14
2017-12-11T01:51:04.951Z,987.07
2017-12-11T01:52:06.762Z,987.07
2017-12-11T01:53:08.636Z,987.14
2017-12-11T01:54:10.518Z,987.13
2017-12-11T01:55:12.399Z,987.13
2017-12-11T01:56:26.555Z,987.10
2017-12-11T01:57:28.437Z,987.12
2017-12-11T01:58:30.323Z,987.18
2017-12-11T01:59:32.190Z,987.17
2017-12-11T02:00:34.011Z,987.17
2017-12-11T02:01:35.830Z,987.21
2017-12-11T02:02:37.710Z,987.23
2017-12-11T02:03:39.591Z,987.12
2017-12-11T02:04:41.462Z,987.34
2017-12-11T02:05:55.619Z,987.34
2017-12-11T02:06:57.491Z,987.31
2017-12-11T02:07:59.365Z,987.32
2017-12-11T02:09:01.248Z,987.28
2017-12-11T02:10:03.071Z,987.34
2017-12-11T02:11:04.892Z,987.34
2017-12-11T02:12:06.768Z,987.35
2017-12-11T02:13:08.641Z,987.28
2017-12-11T02:14:10.524Z,987.35
2017-12-11T02:15:24.679Z,987.31
2017-12-11T02:16:26.562Z,987.27
2017-12-11T02:17:28.444Z,987.38
2017-12-11T02:18:30.314Z,987.51
2017-12-11T02:19:32.125Z,987.40
2017-12-11T02:20:33.947Z,987.34
2017-12-11T02:21:35.828Z,987.28
2017-12-11T02:22:37.699Z,987.19
2017-12-11T02:23:39.584Z,987.35
2017-12-11T02:24:53.741Z,987.34
2017-12-11T02:25:55.622Z,987.26
2017-12-11T02:26:57.501Z,987.24
2017-12-11T02:27:59.385Z,987.28
2017-12-11T02:29:01.208Z,987.42
2017-12-11T02:30:03.032Z,987.27
2017-12-11T02:31:04.902Z,987.24
2017-12-11T02:32:06.782Z,987.38
2017-12-11T02:33:08.648Z,987.30
2017-12-11T02:34:22.795Z,987.22
2017-12-11T02:35:24.666Z,987.27
2017-12-11T02:36:26.551Z,987.34
2017-12-11T02:37:28.424Z,987.31
2017-12-11T02:38:30.235Z,987.49
2017-12-11T02:39:32.058Z,987.56
2017-12-11T02:40:33.930Z,987.45
2017-12-11T02:41:35.815Z,987.60
2017-12-11T02:42:37.687Z,987.44
2017-12-11T02:43:51.895Z,987.30
2017-12-11T02:44:53.771Z,987.36
2017-12-11T02:45:55.640Z,987.30
2017-12-11T02:46:57.528Z,987.72
2017-12-11T02:47:59.337Z,987.76
2017-12-11T02:49:01.158Z,987.75
2017-12-11T02:50:03.031Z,987.72
2017-12-11T02:51:04.916Z,987.62
2017-12-11T02:52:06.788Z,987.80
2017-12-11T02:53:21.015Z,987.86
2017-12-11T02:54:22.819Z,987.86
2017-12-11T02:55:24.703Z,987.82
2017-12-11T02:56:26.577Z,987.87
2017-12-11T02:57:28.388Z,987.89
2017-12-11T02:58:30.204Z,987.88
2017-12-11T02:59:32.091Z,987.92
2017-12-11T03:00:33.974Z,987.91
2017-12-11T03:01:35.847Z,987.76
2017-12-11T03:02:50.055Z,987.89
2017-12-11T03:03:51.930Z,987.85
2017-12-11T03:04:53.803Z,987.91
2017-12-11T03:05:55.685Z,987.77
2017-12-11T03:06:57.507Z,987.79
2017-12-11T03:07:59.330Z,987.94
2017-12-11T03:09:01.203Z,987.83
2017-12-11T03:10:03.076Z,987.73
2017-12-11T03:11:04.957Z,987.83
2017-12-11T03:12:19.115Z,987.88
2017-12-11T03:13:20.989Z,987.90
2017-12-11T03:14:22.861Z,987.86
2017-12-11T03:15:24.743Z,987.83
2017-12-11T03:16:26.553Z,987.85
2017-12-11T03:17:28.375Z,987.78
2017-12-11T03:18:30.248Z,987.74
2017-12-11T03:19:32.130Z,987.68
2017-12-11T03:20:34.002Z,987.71
2017-12-11T03:21:48.160Z,987.73
2017-12-11T03:22:50.045Z,987.77
2017-12-11T03:23:51.920Z,987.54
2017-12-11T03:24:53.808Z,987.75
2017-12-11T03:25:55.615Z,987.77
2017-12-11T03:26:57.437Z,987.61
2017-12-11T03:27:59.308Z,987.82
2017-12-11T03:29:01.179Z,987.83
2017-12-11T03:30:03.063Z,987.91
2017-12-11T03:31:17.201Z,987.95
2017-12-11T03:32:19.092Z,988.02
2017-12-11T03:33:20.965Z,988.08
2017-12-11T03:34:22.835Z,988.04
2017-12-11T03:35:24.690Z,987.98
2017-12-11T03:36:26.474Z,988.05
2017-12-11T03:37:28.356Z,988.03
2017-12-11T03:38:30.227Z,988.03
2017-12-11T03:39:32.106Z,987.95
2017-12-11T03:40:46.252Z,987.99
2017-12-11T03:41:48.146Z,988.05
2017-12-11T03:42:50.011Z,988.00
2017-12-11T03:43:51.888Z,988.14
2017-12-11T03:44:53.695Z,988.06
2017-12-11T03:45:55.517Z,988.07
2017-12-11T03:46:57.401Z,988.11
2017-12-11T03:47:59.271Z,988.02
2017-12-11T03:49:01.154Z,988.07
2017-12-11T03:50:15.312Z,988.12
2017-12-11T03:51:17.182Z,988.25
2017-12-11T03:52:19.055Z,988.15
2017-12-11T03:53:20.928Z,988.09
2017-12-11T03:54:22.754Z,988.23
2017-12-11T03:55:24.562Z,988.28
2017-12-11T03:56:26.434Z,988.26
2017-12-11T03:57:28.319Z,988.44
2017-12-11T03:58:30.191Z,988.43
2017-12-11T03:59:44.348Z,988.43
2017-12-11T04:00:46.230Z,988.45
2017-12-11T04:01:48.104Z,988.41
2017-12-11T04:02:49.977Z,988.44
2017-12-11T04:03:51.788Z,988.26
2017-12-11T04:04:53.612Z,988.19
2017-12-11T04:05:55.497Z,988.34
2017-12-11T04:06:57.368Z,988.32
2017-12-11T04:07:59.240Z,988.32
2017-12-11T04:09:13.399Z,988.27
2017-12-11T04:10:15.269Z,988.31
2017-12-11T04:11:17.152Z,988.31
2017-12-11T04:12:19.036Z,988.31
2017-12-11T04:13:21.059Z,988.38
2017-12-11T04:14:23.015Z,988.41
2017-12-11T04:15:24.890Z,988.43
2017-12-11T04:16:26.763Z,988.40
2017-12-11T04:17:28.636Z,988.41
2017-12-11T04:18:42.789Z,988.35
2017-12-11T04:19:44.677Z,988.35
2017-12-11T04:20:46.566Z,988.48
2017-12-11T04:21:48.440Z,988.45
2017-12-11T04:22:50.262Z,988.50
2017-12-11T04:23:52.085Z,988.63
2017-12-11T04:24:53.960Z,988.72
2017-12-11T04:25:55.836Z,988.58
2017-12-11T04:26:57.719Z,988.67
2017-12-11T04:28:11.876Z,988.62
2017-12-11T04:29:13.748Z,988.78
2017-12-11T04:30:15.621Z,988.73
2017-12-11T04:31:17.493Z,988.79
2017-12-11T04:32:19.316Z,988.83
2017-12-11T04:33:21.139Z,988.87
2017-12-11T04:34:23.013Z,988.80
2017-12-11T04:35:24.886Z,988.82
2017-12-11T04:36:26.756Z,988.69
2017-12-11T04:37:40.911Z,988.80
2017-12-11T04:38:42.777Z,988.85
2017-12-11T04:39:44.649Z,988.91
2017-12-11T04:40:46.520Z,988.88
2017-12-11T04:41:48.343Z,989.03
2017-12-11T04:42:50.155Z,989.02
2017-12-11T04:43:52.028Z,989.01
2017-12-11T04:44:53.910Z,989.08
2017-12-11T04:45:55.784Z,989.15
2017-12-11T04:47:09.988Z,989.27
2017-12-11T04:48:11.858Z,989.30
2017-12-11T04:49:13.741Z,989.23
2017-12-11T04:50:15.613Z,989.18
2017-12-11T04:51:17.423Z,988.97
2017-12-11T04:52:19.236Z,988.96
2017-12-11T04:53:21.109Z,988.83
2017-12-11T04:54:22.990Z,988.72
2017-12-11T04:55:24.874Z,988.73
2017-12-11T04:56:39.032Z,988.68
2017-12-11T04:57:40.905Z,988.79
2017-12-11T04:58:42.779Z,988.70
2017-12-11T04:59:44.649Z,988.72
2017-12-11T05:00:46.568Z,988.83
2017-12-11T05:01:48.488Z,988.86
2017-12-11T05:02:50.477Z,988.80
2017-12-11T05:03:52.471Z,988.87
2017-12-11T05:04:54.491Z,988.98
2017-12-11T05:06:08.793Z,989.11
2017-12-11T05:07:10.814Z,989.09
2017-12-11T05:08:12.843Z,989.22
2017-12-11T05:09:14.851Z,989.18
2017-12-11T05:10:16.834Z,989.25
2017-12-11T05:11:18.834Z,989.24
2017-12-11T05:12:20.836Z,989.11
2017-12-11T05:13:22.902Z,989.14
2017-12-11T05:14:24.913Z,989.17
2017-12-11T05:15:39.218Z,989.15
2017-12-11T05:16:41.153Z,989.28
2017-12-11T05:17:43.138Z,989.33
2017-12-11T05:18:45.018Z,989.26
2017-12-11T05:19:46.841Z,989.25
2017-12-11T05:20:48.664Z,989.21
2017-12-11T05:21:50.535Z,989.22
2017-12-11T05:22:52.418Z,989.28
2017-12-11T05:23:54.300Z,989.26
2017-12-11T05:25:08.457Z,989.27
2017-12-11T05:26:10.340Z,989.31
2017-12-11T05:27:12.215Z,989.30
2017-12-11T05:28:14.085Z,989.31
2017-12-11T05:29:15.898Z,989.34
2017-12-11T05:30:17.710Z,989.41
2017-12-11T05:31:19.584Z,989.55
2017-12-11T05:32:21.457Z,989.54
2017-12-11T05:33:23.337Z,989.51
2017-12-11T05:34:37.494Z,989.55
2017-12-11T05:35:39.375Z,989.62
2017-12-11T05:36:41.256Z,989.58
2017-12-11T05:37:43.127Z,989.62
2017-12-11T05:38:44.957Z,989.68
2017-12-11T05:39:46.766Z,989.67
2017-12-11T05:40:48.638Z,989.76
2017-12-11T05:41:50.521Z,989.70
2017-12-11T05:42:52.394Z,989.74
2017-12-11T05:44:06.540Z,989.76
2017-12-11T05:45:08.423Z,989.76
2017-12-11T05:46:10.306Z,989.78
2017-12-11T05:47:12.179Z,989.81
2017-12-11T05:48:13.992Z,989.78
2017-12-11T05:49:15.812Z,989.82
2017-12-11T05:50:17.686Z,989.77
2017-12-11T05:51:19.569Z,989.75
2017-12-11T05:52:21.441Z,989.81
2017-12-11T05:53:35.588Z,989.87
2017-12-11T05:54:37.461Z,989.87
2017-12-11T05:55:39.334Z,989.94
2017-12-11T05:56:41.217Z,989.81
2017-12-11T05:57:43.027Z,989.80
2017-12-11T05:58:44.840Z,989.80
2017-12-11T05:59:46.712Z,989.82
2017-12-11T06:00:48.594Z,989.85
2017-12-11T06:01:50.475Z,989.86
2017-12-11T06:03:04.623Z,989.77
2017-12-11T06:04:06.495Z,989.79
2017-12-11T06:05:08.369Z,989.89
2017-12-11T06:06:10.241Z,989.92
2017-12-11T06:07:12.063Z,989.84
2017-12-11T06:08:13.884Z,989.87
2017-12-11T06:09:15.767Z,989.78
2017-12-11T06:10:17.650Z,989.80
2017-12-11T06:11:19.535Z,989.79
2017-12-11T06:12:33.686Z,989.74
2017-12-11T06:13:35.559Z,989.77
2017-12-11T06:14:37.438Z,989.69
2017-12-11T06:15:39.310Z,989.76
2017-12-11T06:16:41.122Z,989.71
2017-12-11T06:17:42.942Z,989.68
2017-12-11T06:18:44.815Z,989.70
2017-12-11T06:19:46.690Z,989.70
2017-12-11T06:20:48.564Z,989.63
2017-12-11T06:22:02.762Z,989.72
2017-12-11T06:23:04.639Z,989.66
2017-12-11T06:24:06.535Z,989.68
2017-12-11T06:25:08.410Z,989.68
2017-12-11T06:26:10.220Z,989.70
2017-12-11T06:27:12.043Z,989.60
2017-12-11T06:28:13.914Z,989.60
2017-12-11T06:29:15.788Z,989.70
2017-12-11T06:30:17.670Z,989.56
2017-12-11T06:31:31.865Z,989.53
2017-12-11T06:32:33.737Z,989.53
2017-12-11T06:33:35.622Z,989.58
2017-12-11T06:34:37.494Z,989.55
2017-12-11T06:35:39.305Z,989.57
2017-12-11T06:36:41.129Z,989.56
2017-12-11T06:37:43.014Z,989.61
2017-12-11T06:38:44.886Z,989.65
2017-12-11T06:39:46.770Z,989.68
2017-12-11T06:41:00.970Z,989.72
2017-12-11T06:42:02.840Z,989.72
2017-12-11T06:43:04.716Z,989.77
2017-12-11T06:44:06.597Z,989.70
2017-12-11T06:45:08.420Z,989.67
2017-12-11T06:46:10.243Z,989.67
2017-12-11T06:47:12.127Z,989.69
2017-12-11T06:48:14.010Z,989.65
2017-12-11T06:49:15.883Z,989.66
2017-12-11T06:50:30.041Z,989.73
2017-12-11T06:51:31.915Z,989.75
2017-12-11T06:52:33.790Z,989.76
2017-12-11T06:53:35.676Z,989.74
2017-12-11T06:54:37.488Z,989.73
2017-12-11T06:55:39.313Z,989.74
2017-12-11T06:56:41.197Z,989.75
2017-12-11T06:57:43.070Z,989.77
2017-12-11T06:58:44.956Z,989.77
2017-12-11T06:59:59.104Z,989.85
2017-12-11T07:01:00.990Z,989.88
2017-12-11T07:02:02.877Z,990.00
2017-12-11T07:03:04.755Z,990.00
2017-12-11T07:04:06.581Z,990.04
2017-12-11T07:05:08.396Z,990.10
2017-12-11T07:06:10.280Z,990.17
2017-12-11T07:07:12.149Z,990.14
2017-12-11T07:08:14.036Z,990.13
2017-12-11T07:09:28.186Z,990.26
2017-12-11T07:10:30.060Z,990.23
2017-12-11T07:11:31.946Z,990.21
2017-12-11T07:12:33.826Z,990.24
2017-12-11T07:13:35.635Z,990.22
2017-12-11T07:14:37.460Z,990.17
2017-12-11T07:15:39.346Z,990.19
2017-12-11T07:16:41.230Z,990.17
2017-12-11T07:17:43.116Z,990.19
2017-12-11T07:18:57.275Z,990.23
2017-12-11T07:19:59.161Z,990.28
2017-12-11T07:21:01.047Z,990.27
2017-12-11T07:22:02.923Z,990.24
2017-12-11T07:23:04.751Z,990.22
2017-12-11T07:24:06.568Z,990.31
2017-12-11T07:25:08.638Z,990.22
2017-12-11T07:26:10.516Z,990.19
2017-12-11T07:27:12.408Z,990.19
2017-12-11T07:28:26.526Z,990.20
2017-12-11T07:29:28.345Z,990.30
2017-12-11T07:30:30.159Z,990.25
2017-12-11T07:31:31.993Z,990.27
2017-12-11T07:32:33.827Z,990.26
2017-12-11T07:33:35.715Z,990.27
2017-12-11T07:34:37.629Z,990.20
2017-12-11T07:35:39.426Z,990.23
2017-12-11T07:36:41.246Z,990.29
2017-12-11T07:37:55.393Z,990.35
2017-12-11T07:38:57.282Z,990.34
2017-12-11T07:39:59.168Z,990.35
2017-12-11T07:41:01.056Z,990.31
2017-12-11T07:42:02.890Z,990.33
2017-12-11T07:43:04.704Z,990.36
2017-12-11T07:44:06.591Z,990.35
2017-12-11T07:45:08.466Z,990.36
2017-12-11T07:46:10.353Z,990.38
2017-12-11T07:47:24.506Z,990.34
2017-12-11T07:48:26.383Z,990.36
2017-12-11T07:49:28.323Z,990.41
2017-12-11T07:50:30.187Z,990.42
2017-12-11T07:51:32.005Z,990.35
2017-12-11T07:52:33.834Z,990.33
2017-12-11T07:53:35.714Z,990.34
2017-12-11T07:54:37.594Z,990.28
2017-12-11T07:55:39.490Z,990.29
2017-12-11T07:56:53.636Z,990.36
2017-12-11T07:57:55.513Z,990.31
2017-12-11T07:58:57.395Z,990.27
2017-12-11T07:59:59.285Z,990.35
2017-12-11T08:01:01.100Z,990.40
2017-12-11T08:02:02.918Z,990.36
2017-12-11T08:03:04.806Z,990.40
2017-12-11T08:04:06.694Z,990.39
2017-12-11T08:05:08.584Z,990.46
2017-12-11T08:06:22.736Z,990.42
2017-12-11T08:07:24.614Z,990.49
2017-12-11T08:08:26.492Z,990.53
2017-12-11T08:09:28.368Z,990.56
2017-12-11T08:10:30.195Z,990.58
2017-12-11T08:11:32.013Z,990.65
2017-12-11T08:12:33.902Z,990.67
2017-12-11T08:13:35.782Z,990.68
2017-12-11T08:14:37.659Z,990.77
2017-12-11T08:15:51.864Z,990.75
2017-12-11T08:16:53.747Z,990.73
2017-12-11T08:17:55.619Z,990.80
2017-12-11T08:18:57.530Z,990.78
2017-12-11T08:19:59.359Z,990.76
2017-12-11T08:21:01.176Z,990.76
2017-12-11T08:22:03.057Z,990.69
2017-12-11T08:23:04.935Z,990.75
2017-12-11T08:24:06.822Z,990.78
2017-12-11T08:25:20.986Z,990.85
2017-12-11T08:26:22.864Z,990.77
2017-12-11T08:27:24.752Z,990.77
2017-12-11T08:28:26.630Z,990.77
2017-12-11T08:29:28.456Z,990.73
2017-12-11T08:30:30.287Z,990.66
2017-12-11T08:31:32.163Z,990.73
2017-12-11T08:32:34.041Z,990.72
2017-12-11T08:33:35.916Z,990.74
2017-12-11T08:34:50.080Z,990.75
2017-12-11T08:35:51.970Z,990.62
2017-12-11T08:36:53.856Z,990.60
2017-12-11T08:37:55.726Z,990.68
2017-12-11T08:38:57.560Z,990.74
2017-12-11T08:39:59.371Z,990.63
2017-12-11T08:41:01.248Z,990.66
2017-12-11T08:42:03.128Z,990.64
2017-12-11T08:43:05.016Z,990.68
2017-12-11T08:44:19.169Z,990.69
2017-12-11T08:45:21.046Z,990.66
2017-12-11T08:46:22.936Z,990.69
2017-12-11T08:47:24.826Z,990.72
2017-12-11T08:48:26.654Z,990.65
2017-12-11T08:49:28.485Z,990.65
2017-12-11T08:50:30.364Z,990.67
2017-12-11T08:51:32.242Z,990.69
2017-12-11T08:52:34.124Z,990.65
2017-12-11T08:53:48.302Z,990.72
2017-12-11T08:54:50.202Z,990.82
2017-12-11T08:55:52.091Z,990.76
2017-12-11T08:56:53.971Z,990.77
2017-12-11T08:57:55.798Z,990.73
2017-12-11T08:58:57.628Z,990.75
2017-12-11T08:59:59.508Z,990.77
2017-12-11T09:01:01.400Z,990.85
2017-12-11T09:02:03.288Z,990.83
2017-12-11T09:03:17.444Z,990.89
2017-12-11T09:04:19.324Z,990.91
2017-12-11T09:05:21.202Z,990.88
2017-12-11T09:06:23.080Z,990.87
2017-12-11T09:07:24.907Z,990.98
2017-12-11T09:08:26.736Z,990.87
2017-12-11T09:09:28.614Z,990.88
2017-12-11T09:10:30.493Z,990.89
2017-12-11T09:11:32.383Z,990.74
2017-12-11T09:12:46.545Z,990.74
2017-12-11T09:13:48.436Z,990.71
2017-12-11T09:14:50.325Z,990.78
2017-12-11T09:15:52.204Z,990.68
2017-12-11T09:16:54.032Z,990.70
2017-12-11T09:17:55.899Z,990.66
2017-12-11T09:18:57.730Z,990.72
2017-12-11T09:19:59.611Z,990.74
2017-12-11T09:21:01.489Z,990.72
2017-12-11T09:22:15.653Z,990.67
2017-12-11T09:23:17.531Z,990.70
2017-12-11T09:24:19.412Z,990.74
2017-12-11T09:25:21.290Z,990.73
2017-12-11T09:26:23.118Z,990.72
2017-12-11T09:27:24.937Z,990.71
2017-12-11T09:28:26.832Z,990.68
2017-12-11T09:29:28.708Z,990.72
2017-12-11T09:30:30.582Z,990.75
2017-12-11T09:31:44.746Z,990.76
2017-12-11T09:32:46.624Z,990.79
2017-12-11T09:33:48.525Z,990.75
2017-12-11T09:34:50.397Z,990.77
2017-12-11T09:35:52.210Z,990.70
2017-12-11T09:36:54.040Z,990.78
2017-12-11T09:37:55.919Z,990.73
2017-12-11T09:38:57.799Z,990.69
2017-12-11T09:39:59.688Z,990.71
2017-12-11T09:41:13.903Z,990.70
2017-12-11T09:42:15.781Z,990.73
2017-12-11T09:43:17.671Z,990.71
2017-12-11T09:44:19.550Z,990.69
2017-12-11T09:45:21.379Z,990.75
2017-12-11T09:46:23.199Z,990.65
2017-12-11T09:47:25.083Z,990.68
2017-12-11T09:48:26.956Z,990.67
2017-12-11T09:49:28.912Z,990.63
2017-12-11T09:50:43.058Z,990.69
2017-12-11T09:51:44.936Z,990.71
2017-12-11T09:52:46.813Z,990.72
2017-12-11T09:53:48.693Z,990.74
2017-12-11T09:54:50.509Z,990.79
2017-12-11T09:55:52.339Z,990.79
2017-12-11T09:56:54.230Z,990.72
2017-12-11T09:57:56.110Z,990.70
2017-12-11T09:58:57.987Z,990.69
2017-12-11T10:00:12.151Z,990.67
2017-12-11T10:01:14.042Z,990.57
2017-12-11T10:02:15.931Z,990.62
2017-12-11T10:03:17.817Z,990.56
2017-12-11T10:04:19.645Z,990.52
2017-12-11T10:05:21.474Z,990.52
2017-12-11T10:06:23.354Z,990.49
2017-12-11T10:07:25.234Z,990.52
2017-12-11T10:08:27.112Z,990.49
2017-12-11T10:09:41.267Z,990.44
2017-12-11T10:10:43.146Z,990.48
2017-12-11T10:11:45.036Z,990.44
2017-12-11T10:12:46.918Z,990.40
2017-12-11T10:13:48.736Z,990.38
2017-12-11T10:14:50.565Z,990.35
2017-12-11T10:15:52.444Z,990.31
2017-12-11T10:16:54.323Z,990.25
2017-12-11T10:17:56.200Z,990.23
2017-12-11T10:19:10.366Z,990.21
2017-12-11T10:20:12.244Z,990.23
2017-12-11T10:21:14.133Z,990.22
2017-12-11T10:22:16.014Z,990.21
2017-12-11T10:23:17.842Z,990.20
2017-12-11T10:24:19.670Z,990.20
2017-12-11T10:25:21.553Z,990.18
2017-12-11T10:26:23.429Z,990.21
2017-12-11T10:27:25.308Z,990.16
2017-12-11T10:28:39.472Z,990.14
2017-12-11T10:29:41.363Z,990.16
2017-12-11T10:30:43.254Z,990.05
2017-12-11T10:31:45.133Z,990.09
2017-12-11T10:32:46.963Z,990.00
2017-12-11T10:33:48.793Z,989.97
2017-12-11T10:34:50.674Z,989.98
2017-12-11T10:35:52.554Z,990.00
2017-12-11T10:36:54.446Z,989.99
2017-12-11T10:38:08.608Z,990.02
2017-12-11T10:39:10.487Z,990.02
2017-12-11T10:40:12.369Z,990.03
2017-12-11T10:41:14.246Z,990.04
2017-12-11T10:42:16.076Z,990.07
2017-12-11T10:43:17.897Z,990.14
2017-12-11T10:44:19.776Z,990.17
2017-12-11T10:45:21.657Z,990.18
2017-12-11T10:46:23.535Z,990.21
2017-12-11T10:47:37.702Z,990.30
2017-12-11T10:48:39.583Z,990.32
2017-12-11T10:49:41.467Z,990.30
2017-12-11T10:50:43.350Z,990.34
2017-12-11T10:51:45.175Z,990.30
2017-12-11T10:52:46.990Z,990.36
2017-12-11T10:53:48.883Z,990.32
2017-12-11T10:54:50.761Z,990.35
2017-12-11T10:55:52.641Z,990.34
2017-12-11T10:57:06.846Z,990.22
2017-12-11T10:58:08.739Z,990.23
2017-12-11T10:59:10.656Z,990.21
2017-12-11T11:00:12.549Z,990.16
2017-12-11T11:01:14.370Z,990.11
2017-12-11T11:02:16.192Z,990.14
2017-12-11T11:03:18.085Z,990.12
2017-12-11T11:04:19.958Z,990.13
2017-12-11T11:05:21.849Z,990.10
2017-12-11T11:06:36.059Z,990.07
2017-12-11T11:07:37.936Z,990.04
2017-12-11T11:08:39.834Z,990.04
2017-12-11T11:09:41.709Z,989.96
2017-12-11T11:10:43.540Z,989.99
2017-12-11T11:11:45.369Z,989.94
2017-12-11T11:12:47.244Z,989.95
2017-12-11T11:13:49.123Z,989.90
2017-12-11T11:14:51.018Z,989.91
2017-12-11T11:16:05.173Z,989.87
2017-12-11T11:17:07.066Z,989.90
2017-12-11T11:18:08.946Z,989.93
2017-12-11T11:19:10.825Z,990.01
2017-12-11T11:20:12.672Z,990.05
2017-12-11T11:21:14.492Z,990.05
2017-12-11T11:22:16.378Z,990.11
2017-12-11T11:23:18.418Z,990.14
2017-12-11T11:24:20.398Z,990.06
2017-12-11T11:25:34.468Z,990.06
2017-12-11T11:26:36.347Z,989.94
2017-12-11T11:27:38.247Z,989.94
2017-12-11T11:28:40.128Z,989.84
2017-12-11T11:29:41.943Z,989.86
2017-12-11T11:30:43.773Z,989.84
2017-12-11T11:31:45.665Z,989.79
2017-12-11T11:32:47.542Z,989.86
2017-12-11T11:33:49.398Z,989.93
2017-12-11T11:35:03.553Z,989.82
2017-12-11T11:36:05.436Z,989.84
2017-12-11T11:37:07.318Z,989.86
2017-12-11T11:38:09.197Z,989.93
2017-12-11T11:39:11.026Z,989.93
2017-12-11T11:40:12.856Z,989.87
2017-12-11T11:41:14.747Z,989.78
2017-12-11T11:42:16.638Z,989.78
2017-12-11T11:43:18.527Z,989.75
2017-12-11T11:44:32.692Z,989.69
2017-12-11T11:45:34.572Z,989.65
2017-12-11T11:46:36.462Z,989.63
2017-12-11T11:47:38.341Z,989.58
2017-12-11T11:48:40.171Z,989.56
2017-12-11T11:49:42.001Z,989.55
2017-12-11T11:50:43.880Z,989.51
2017-12-11T11:51:45.771Z,989.41
2017-12-11T11:52:47.662Z,989.46
2017-12-11T11:54:01.815Z,989.45
2017-12-11T11:55:03.708Z,989.43
2017-12-11T11:56:05.586Z,989.42
2017-12-11T11:57:07.477Z,989.36
2017-12-11T11:58:09.306Z,989.24
2017-12-11T11:59:11.136Z,989.22
2017-12-11T12:00:13.017Z,989.15
2017-12-11T12:01:14.909Z,989.16
2017-12-11T12:02:16.797Z,989.11
2017-12-11T12:03:31.002Z,989.07
2017-12-11T12:04:32.881Z,989.11
2017-12-11T12:05:34.836Z,989.07
2017-12-11T12:06:36.714Z,989.11
2017-12-11T12:07:38.545Z,989.13
2017-12-11T12:08:40.376Z,989.12
2017-12-11T12:09:42.265Z,989.06
2017-12-11T12:10:44.154Z,989.08
2017-12-11T12:11:46.036Z,989.13
2017-12-11T12:13:00.189Z,989.08
2017-12-11T12:14:02.068Z,989.07
2017-12-11T12:15:03.958Z,989.11
2017-12-11T12:16:05.849Z,989.16
2017-12-11T12:17:07.680Z,989.16
2017-12-11T12:18:09.510Z,989.19
2017-12-11T12:19:11.330Z,989.23
2017-12-11T12:20:13.161Z,989.32
2017-12-11T12:21:14.991Z,989.36
2017-12-11T12:22:29.144Z,989.33
2017-12-11T12:23:31.027Z,989.34
2017-12-11T12:24:32.918Z,989.32
2017-12-11T12:25:34.797Z,989.25
2017-12-11T12:26:36.628Z,989.22
2017-12-11T12:27:38.490Z,989.12
2017-12-11T12:28:40.328Z,989.01
2017-12-11T12:29:42.218Z,988.94
2017-12-11T12:30:44.108Z,989.00
2017-12-11T12:31:58.262Z,988.97
2017-12-11T12:33:00.148Z,988.92
2017-12-11T12:34:02.030Z,988.83
2017-12-11T12:35:03.929Z,988.83
2017-12-11T12:36:05.753Z,988.81
2017-12-11T12:37:07.571Z,988.81
2017-12-11T12:38:09.472Z,988.74
2017-12-11T12:39:11.344Z,988.58
2017-12-11T12:40:13.234Z,988.51
2017-12-11T12:41:27.401Z,988.39
2017-12-11T12:42:29.281Z,988.38
2017-12-11T12:43:31.172Z,988.41
2017-12-11T12:44:33.054Z,988.49
2017-12-11T12:45:34.885Z,988.56
2017-12-11T12:46:36.704Z,988.56
2017-12-11T12:47:38.584Z,988.64
2017-12-11T12:48:40.474Z,988.59
2017-12-11T12:49:42.365Z,988.60
2017-12-11T12:50:56.519Z,988.67
2017-12-11T12:51:58.400Z,988.65
2017-12-11T12:53:00.293Z,988.55
2017-12-11T12:54:02.175Z,988.54
2017-12-11T12:55:03.995Z,988.56
2017-12-11T12:56:05.826Z,988.49
2017-12-11T12:57:07.707Z,988.50
2017-12-11T12:58:09.598Z,988.36
2017-12-11T12:59:11.487Z,988.41
2017-12-11T13:00:25.641Z,988.40
2017-12-11T13:01:27.521Z,988.37
2017-12-11T13:02:29.403Z,988.39
2017-12-11T13:03:31.280Z,988.56
2017-12-11T13:04:33.109Z,988.48
2017-12-11T13:05:34.937Z,988.40
2017-12-11T13:06:36.816Z,988.44
2017-12-11T13:07:38.707Z,988.42
2017-12-11T13:08:40.600Z,988.44